Time;durP1;ratioP1;P1;durP2;ratioP2;P2;SDS_P1;SDS_P2;PMS_P1;PMS_P2;Temp;Humidity;BMP_temperature;BMP_pressure;BME280_temperature;BME280_humidity;BME280_pressure;Samples;Min_cycle;Max_cycle;Signal;HPM_P1;HPM_P2
2022/05/22 00:01:39;;;;;;;13.27;4.13;;;13.70;99.90;;;;;;5053475;28;20474;-60
2022/05/22 00:04:04;;;;;;;11.45;3.90;;;13.90;99.90;;;;;;5053488;28;20021;-59
2022/05/22 00:06:30;;;;;;;13.43;3.88;;;13.80;99.90;;;;;;5052301;28;20048;-60
2022/05/22 00:08:56;;;;;;;8.52;3.88;;;13.60;99.90;;;;;;5053477;28;20025;-60
2022/05/22 00:11:25;;;;;;;12.77;4.07;;;13.50;99.90;;;;;;5053509;28;20021;-60
2022/05/22 00:13:51;;;;;;;12.02;3.90;;;13.50;99.90;;;;;;5051745;28;20021;-59
2022/05/22 00:19:01;;;;;;;17.05;4.32;;;13.30;99.90;;;;;;5053279;28;20032;-60
2022/05/22 00:21:27;;;;;;;12.40;4.05;;;13.20;99.90;;;;;;5053448;28;20036;-59
2022/05/22 00:23:53;;;;;;;18.17;4.65;;;13.00;99.90;;;;;;5053127;28;20405;-60
2022/05/22 00:26:19;;;;;;;15.02;4.40;;;13.00;99.90;;;;;;5053149;28;20032;-59
2022/05/22 00:28:44;;;;;;;14.20;4.72;;;13.10;99.90;;;;;;5052894;28;20075;-59
2022/05/22 00:31:10;;;;;;;13.85;4.78;;;13.00;99.90;;;;;;5052676;28;20800;-59
2022/05/22 00:33:36;;;;;;;13.13;4.53;;;13.00;99.90;;;;;;5051364;28;20031;-59
2022/05/22 00:36:03;;;;;;;14.35;4.47;;;13.00;99.90;;;;;;5052781;28;20389;-60
2022/05/22 00:38:29;;;;;;;13.10;4.70;;;13.00;99.90;;;;;;5052585;28;20044;-60
2022/05/22 00:40:54;;;;;;;12.63;4.53;;;13.20;99.90;;;;;;5053037;28;20039;-59
2022/05/22 00:43:37;;;;;;;12.45;4.43;;;13.20;99.90;;;;;;5052393;28;20112;-60
2022/05/22 00:46:05;;;;;;;14.45;5.07;;;13.40;99.90;;;;;;5052686;28;20386;-59
2022/05/22 00:48:32;;;;;;;11.80;5.03;;;13.30;99.90;;;;;;5051219;28;20049;-59
2022/05/22 00:51:04;;;;;;;13.48;5.22;;;13.00;99.90;;;;;;5052562;28;20033;-59
2022/05/22 00:53:33;;;;;;;13.65;4.57;;;12.80;99.90;;;;;;5052425;28;20397;-59
2022/05/22 00:56:01;;;;;;;12.85;4.80;;;12.70;99.90;;;;;;5052799;28;20017;-59
2022/05/22 00:58:29;;;;;;;12.20;4.80;;;12.60;99.90;;;;;;5052460;28;20108;-59
2022/05/22 01:00:56;;;;;;;17.63;5.07;;;12.60;99.90;;;;;;5052438;28;20393;-59
2022/05/22 01:03:29;;;;;;;13.52;5.03;;;12.60;99.90;;;;;;5052478;28;20017;-59
2022/05/22 01:05:57;;;;;;;15.65;5.50;;;12.60;99.90;;;;;;5052469;28;20068;-60
2022/05/22 01:08:24;;;;;;;14.18;5.20;;;12.60;99.90;;;;;;5051717;28;20017;-60
2022/05/22 01:10:58;;;;;;;15.73;4.93;;;12.70;99.90;;;;;;5052404;28;20059;-59
2022/05/22 01:13:34;;;;;;;12.48;4.80;;;12.60;99.90;;;;;;5052342;28;20493;-59
2022/05/22 01:16:01;;;;;;;14.20;5.35;;;12.50;99.90;;;;;;5052013;28;20025;-59
2022/05/22 01:18:27;;;;;;;15.98;5.13;;;12.60;99.90;;;;;;5051873;28;20503;-59
2022/05/22 01:20:53;;;;;;;13.70;5.00;;;12.60;99.90;;;;;;5052167;28;20696;-59
2022/05/22 01:23:20;;;;;;;11.73;5.35;;;12.60;99.90;;;;;;5050466;28;20032;-59
2022/05/22 01:25:46;;;;;;;12.48;5.03;;;12.50;99.90;;;;;;5051989;28;20151;-59
2022/05/22 01:28:15;;;;;;;18.45;6.07;;;12.50;99.90;;;;;;5051733;28;20112;-60
2022/05/22 01:30:41;;;;;;;16.33;5.78;;;12.50;99.90;;;;;;5050315;28;20052;-60
2022/05/22 01:33:07;;;;;;;18.80;6.13;;;12.60;99.90;;;;;;5051749;28;20025;-59
2022/05/22 01:35:35;;;;;;;13.32;5.63;;;12.60;99.90;;;;;;5051604;28;20036;-59
2022/05/22 01:38:02;;;;;;;11.38;5.20;;;12.60;99.90;;;;;;5051704;28;20533;-59
2022/05/22 01:40:28;;;;;;;15.20;5.68;;;12.60;99.90;;;;;;5050666;28;20032;-59
2022/05/22 01:42:54;;;;;;;15.45;5.57;;;12.50;99.90;;;;;;5051709;28;20083;-60
2022/05/22 01:45:22;;;;;;;13.57;5.85;;;12.70;99.90;;;;;;5051766;28;20018;-59
2022/05/22 01:47:48;;;;;;;14.85;6.10;;;12.80;99.90;;;;;;5051852;28;20029;-59
2022/05/22 01:50:14;;;;;;;13.20;5.85;;;12.70;99.90;;;;;;5050379;28;20029;-60
2022/05/22 01:52:41;;;;;;;16.33;5.90;;;12.70;99.90;;;;;;5051576;28;20473;-61
2022/05/22 01:55:09;;;;;;;14.05;5.63;;;12.50;99.90;;;;;;5051333;28;20021;-59
2022/05/22 01:57:35;;;;;;;17.48;6.13;;;12.50;99.90;;;;;;5050094;28;20549;-59
2022/05/22 02:00:01;;;;;;;17.52;6.95;;;12.40;99.90;;;;;;5051737;28;20049;-60
2022/05/22 02:02:26;;;;;;;17.73;6.65;;;12.30;99.90;;;;;;5049998;28;20021;-60
2022/05/22 02:04:52;;;;;;;19.90;7.18;;;12.30;99.90;;;;;;5051295;28;20048;-60
2022/05/22 02:10:03;;;;;;;19.75;6.95;;;12.30;99.90;;;;;;5051546;28;20405;-59
2022/05/22 02:12:30;;;;;;;19.42;7.13;;;12.20;99.90;;;;;;5051016;28;20025;-60
2022/05/22 02:14:55;;;;;;;17.52;6.93;;;12.20;99.90;;;;;;5050983;28;20017;-59
2022/05/22 02:17:21;;;;;;;20.17;7.63;;;12.10;99.90;;;;;;5051215;28;20025;-59
2022/05/22 02:19:46;;;;;;;18.02;7.97;;;12.10;99.90;;;;;;5052997;28;20025;-59
2022/05/22 02:22:12;;;;;;;19.35;7.50;;;12.00;99.90;;;;;;5055247;28;20039;-59
2022/05/22 02:24:38;;;;;;;19.02;7.05;;;12.00;99.90;;;;;;5054947;28;20390;-59
2022/05/22 02:27:06;;;;;;;21.45;7.55;;;12.10;99.90;;;;;;5054928;28;20028;-59
2022/05/22 02:29:34;;;;;;;16.85;7.28;;;12.20;99.90;;;;;;5055232;28;20393;-59
2022/05/22 02:31:59;;;;;;;14.73;7.25;;;12.20;99.90;;;;;;5053376;28;20082;-60
2022/05/22 02:34:25;;;;;;;18.10;7.80;;;12.10;99.90;;;;;;5054923;28;20547;-59
2022/05/22 02:36:51;;;;;;;23.58;7.47;;;12.20;99.90;;;;;;5053693;28;20021;-59
2022/05/22 02:39:18;;;;;;;18.65;7.03;;;12.40;99.90;;;;;;5054649;28;20083;-59
2022/05/22 02:41:45;;;;;;;17.52;7.10;;;12.40;99.90;;;;;;5055002;28;20033;-59
2022/05/22 02:44:10;;;;;;;19.80;7.15;;;12.20;99.90;;;;;;5054952;28;20065;-60
2022/05/22 02:46:36;;;;;;;21.30;7.53;;;12.10;99.90;;;;;;5054983;28;20064;-60
2022/05/22 02:49:02;;;;;;;16.90;7.05;;;12.10;99.90;;;;;;5053398;28;20025;-60
2022/05/22 02:51:27;;;;;;;21.80;7.68;;;12.00;99.90;;;;;;5053602;28;20056;-60
2022/05/22 02:53:54;;;;;;;20.80;7.40;;;11.90;99.90;;;;;;5054604;28;20033;-60
2022/05/22 02:56:24;;;;;;;24.83;8.43;;;12.00;99.90;;;;;;5054630;28;20044;-59
2022/05/22 02:58:49;;;;;;;21.83;8.32;;;12.00;99.90;;;;;;5053648;28;20448;-60
2022/05/22 03:01:15;;;;;;;17.90;8.63;;;11.90;99.90;;;;;;5053529;28;20025;-60
2022/05/22 03:03:41;;;;;;;21.55;8.23;;;11.90;99.90;;;;;;5054492;28;20033;-60
2022/05/22 03:08:51;;;;;;;24.88;9.07;;;11.80;99.90;;;;;;5054889;28;20036;-59
2022/05/22 03:11:17;;;;;;;18.75;7.75;;;11.70;99.90;;;;;;5053445;28;20025;-60
2022/05/22 03:13:43;;;;;;;21.73;8.45;;;11.80;99.90;;;;;;5052962;28;20035;-60
2022/05/22 03:16:09;;;;;;;19.80;8.68;;;11.90;99.90;;;;;;5053204;28;20174;-59
2022/05/22 03:18:34;;;;;;;17.90;8.20;;;11.80;99.90;;;;;;5054540;28;20021;-60
2022/05/22 03:21:00;;;;;;;23.23;8.50;;;11.70;99.90;;;;;;5054520;28;20053;-60
2022/05/22 03:23:26;;;;;;;21.20;7.93;;;11.60;99.90;;;;;;5052998;28;20029;-60
2022/05/22 03:25:51;;;;;;;19.95;7.50;;;11.60;99.90;;;;;;5054193;28;20108;-60
2022/05/22 03:28:18;;;;;;;26.77;8.88;;;11.60;99.90;;;;;;5054042;28;20056;-60
2022/05/22 03:30:44;;;;;;;22.55;8.30;;;11.80;99.90;;;;;;5053171;28;20067;-59
2022/05/22 03:33:10;;;;;;;21.48;9.25;;;11.80;99.90;;;;;;5054009;28;20478;-60
2022/05/22 03:35:35;;;;;;;19.70;7.63;;;11.70;99.90;;;;;;5054172;28;20029;-60
2022/05/22 03:38:02;;;;;;;21.92;8.13;;;11.70;99.90;;;;;;5053892;28;20167;-60
2022/05/22 03:40:28;;;;;;;24.23;7.82;;;11.60;99.90;;;;;;5053964;28;20032;-60
2022/05/22 03:42:54;;;;;;;21.52;7.65;;;11.60;99.90;;;;;;5053810;28;20025;-60
2022/05/22 03:45:20;;;;;;;19.88;7.07;;;11.50;99.90;;;;;;5053589;28;20025;-60
2022/05/22 03:47:46;;;;;;;16.17;7.18;;;11.50;99.90;;;;;;5053684;28;20025;-59
2022/05/22 03:50:13;;;;;;;21.42;8.88;;;11.70;99.90;;;;;;5053768;28;20473;-59
2022/05/22 03:52:42;;;;;;;20.77;8.18;;;11.70;99.90;;;;;;5052129;28;20029;-59
2022/05/22 03:55:13;;;;;;;21.50;7.97;;;11.90;99.90;;;;;;5053353;28;20032;-60
2022/05/22 03:57:39;;;;;;;21.90;8.63;;;11.80;99.90;;;;;;5052199;28;20616;-60
2022/05/22 04:00:08;;;;;;;19.25;8.43;;;11.90;99.90;;;;;;5053387;28;20104;-60
2022/05/22 04:02:35;;;;;;;22.48;8.20;;;12.10;99.90;;;;;;5053222;28;20032;-61
2022/05/22 04:05:08;;;;;;;21.02;7.78;;;11.80;99.90;;;;;;5053278;28;20021;-61
2022/05/22 04:07:42;;;;;;;17.60;8.07;;;11.50;99.90;;;;;;5051943;28;20167;-60
2022/05/22 04:10:09;;;;;;;22.80;8.20;;;11.40;99.90;;;;;;5053410;28;20443;-60
2022/05/22 04:12:35;;;;;;;21.30;7.97;;;11.20;99.90;;;;;;5052959;28;20025;-60
2022/05/22 04:15:02;;;;;;;18.38;8.70;;;11.20;99.90;;;;;;5052109;28;20740;-60
2022/05/22 04:17:28;;;;;;;17.63;7.97;;;11.40;99.90;;;;;;5051907;28;20021;-60
2022/05/22 04:19:54;;;;;;;21.10;8.80;;;11.60;99.90;;;;;;5053258;28;20039;-61
2022/05/22 04:22:19;;;;;;;16.00;7.47;;;11.70;99.90;;;;;;5053265;28;20025;-60
2022/05/22 04:27:29;;;;;;;16.77;7.88;;;11.50;99.90;;;;;;5053442;28;20048;-60
2022/05/22 04:29:56;;;;;;;14.48;7.75;;;11.60;99.90;;;;;;5052874;28;20041;-60
2022/05/22 04:32:21;;;;;;;18.17;8.13;;;11.60;99.90;;;;;;5053127;28;20037;-60
2022/05/22 04:34:47;;;;;;;17.95;8.07;;;11.60;99.90;;;;;;5051272;28;20024;-60
2022/05/22 04:37:13;;;;;;;16.65;8.07;;;11.90;99.90;;;;;;5051998;28;20025;-61
2022/05/22 04:39:38;;;;;;;18.95;8.32;;;12.10;99.90;;;;;;5051574;28;20033;-61
2022/05/22 04:42:04;;;;;;;16.73;7.90;;;12.10;99.90;;;;;;5052667;28;20143;-61
2022/05/22 04:44:30;;;;;;;20.02;8.10;;;12.00;99.90;;;;;;5052799;28;20044;-60
2022/05/22 04:46:58;;;;;;;19.20;8.23;;;11.90;99.90;;;;;;5052831;28;20067;-60
2022/05/22 04:49:24;;;;;;;18.13;6.97;;;11.90;99.90;;;;;;5052393;28;20029;-60
2022/05/22 04:51:50;;;;;;;17.08;8.10;;;12.20;99.90;;;;;;5051247;28;20596;-60
2022/05/22 04:54:15;;;;;;;18.38;7.45;;;12.30;99.90;;;;;;5052388;28;20017;-60
2022/05/22 04:56:41;;;;;;;29.45;8.60;;;12.20;99.90;;;;;;5052146;28;20029;-60
2022/05/22 04:59:06;;;;;;;18.25;7.82;;;12.10;99.90;;;;;;5052436;28;20021;-60
2022/05/22 05:01:32;;;;;;;18.55;7.15;;;12.10;99.90;;;;;;5052690;28;20040;-61
2022/05/22 05:03:58;;;;;;;17.92;7.30;;;12.20;99.90;;;;;;5052140;28;20529;-59
2022/05/22 05:06:23;;;;;;;22.67;7.35;;;12.30;99.90;;;;;;5050850;28;20025;-60
2022/05/22 05:08:49;;;;;;;22.42;7.95;;;12.30;99.90;;;;;;5051929;28;20029;-59
2022/05/22 05:11:15;;;;;;;22.90;7.53;;;12.40;99.90;;;;;;5051950;28;20028;-59
2022/05/22 05:13:40;;;;;;;17.17;7.10;;;12.40;99.90;;;;;;5052186;28;20024;-60
2022/05/22 05:16:09;;;;;;;19.48;7.78;;;12.50;99.90;;;;;;5051888;28;20025;-60
2022/05/22 05:18:44;;;;;;;19.80;7.10;;;12.40;99.90;;;;;;5050283;28;20028;-59
2022/05/22 05:21:17;;;;;;;16.90;7.85;;;12.60;99.90;;;;;;5052065;28;20060;-59
2022/05/22 05:23:42;;;;;;;;;;;12.80;99.90;;;;;;5051308;28;20058;-59
2022/05/22 05:26:08;;;;;;;21.27;9.00;;;13.10;99.90;;;;;;5050654;28;20266;-60
2022/05/22 05:28:34;;;;;;;20.50;8.70;;;13.20;99.90;;;;;;5052014;28;20025;-60
2022/05/22 05:31:00;;;;;;;18.80;8.73;;;13.30;99.90;;;;;;5050505;28;20049;-60
2022/05/22 05:33:26;;;;;;;17.88;8.60;;;13.40;99.90;;;;;;5051554;28;20470;-59
2022/05/22 05:35:52;;;;;;;16.13;7.95;;;13.40;99.90;;;;;;5051546;28;20473;-59
2022/05/22 05:38:18;;;;;;;21.85;8.57;;;13.40;99.90;;;;;;5051575;28;20078;-59
2022/05/22 05:40:44;;;;;;;15.65;7.10;;;13.40;99.90;;;;;;5051654;28;20500;-59
2022/05/22 05:43:10;;;;;;;16.08;7.13;;;13.60;99.90;;;;;;5051420;28;20028;-59
2022/05/22 05:45:35;;;;;;;19.13;7.35;;;13.60;99.90;;;;;;5049784;28;20017;-59
2022/05/22 05:48:01;;;;;;;16.25;7.47;;;13.70;99.90;;;;;;5051256;28;20143;-59
2022/05/22 05:50:27;;;;;;;15.18;7.22;;;13.90;99.90;;;;;;5050049;28;20057;-59
2022/05/22 05:52:55;;;;;;;13.00;7.20;;;13.90;99.90;;;;;;5049676;28;20125;-58
2022/05/22 05:55:22;;;;;;;15.05;6.78;;;14.10;99.90;;;;;;5050539;28;20128;-58
2022/05/22 05:57:48;;;;;;;14.48;7.47;;;14.20;99.90;;;;;;5051112;28;20074;-58
2022/05/22 06:00:16;;;;;;;18.25;6.90;;;14.20;99.90;;;;;;5051141;28;20525;-59
2022/05/22 06:02:42;;;;;;;19.58;7.57;;;14.40;99.90;;;;;;5050960;28;20036;-59
2022/05/22 06:05:09;;;;;;;13.55;7.18;;;14.40;99.90;;;;;;5051039;28;20029;-59
2022/05/22 06:07:35;;;;;;;16.33;6.75;;;14.40;99.90;;;;;;5049856;28;20124;-58
2022/05/22 06:10:01;;;;;;;15.85;6.95;;;14.30;99.90;;;;;;5050972;28;20107;-58
2022/05/22 06:12:27;;;;;;;15.13;7.38;;;14.40;99.90;;;;;;5051061;28;20068;-58
2022/05/22 06:14:52;;;;;;;11.40;6.72;;;14.60;99.90;;;;;;5050813;28;20057;-58
2022/05/22 06:17:18;;;;;;;12.63;6.93;;;14.60;99.90;;;;;;5051202;28;20055;-58
2022/05/22 06:19:57;;;;;;;13.75;6.97;;;14.60;99.90;;;;;;5049729;28;20058;-58
2022/05/22 06:22:24;;;;;;;19.02;6.97;;;14.70;99.90;;;;;;5050874;28;20025;-58
2022/05/22 06:24:51;;;;;;;12.27;6.70;;;14.80;99.90;;;;;;5049474;28;20036;-58
2022/05/22 06:27:17;;;;;;;13.32;6.72;;;14.90;99.90;;;;;;5050872;28;20029;-58
2022/05/22 06:29:43;;;;;;;12.90;6.57;;;15.00;99.90;;;;;;5050699;28;20025;-58
2022/05/22 06:32:15;;;;;;;12.45;6.20;;;15.20;99.90;;;;;;5050818;28;20040;-58
2022/05/22 06:34:41;;;;;;;14.63;6.68;;;15.30;99.90;;;;;;5050780;28;20017;-58
2022/05/22 06:37:09;;;;;;;18.20;6.97;;;15.60;99.90;;;;;;5049389;28;20442;-58
2022/05/22 06:39:50;;;;;;;15.40;7.13;;;16.00;99.90;;;;;;5050780;28;20029;-58
2022/05/22 06:42:42;;;;;;;13.80;6.32;;;16.30;99.90;;;;;;5050553;28;20049;-58
2022/05/22 06:45:11;;;;;;;15.38;6.03;;;16.60;99.90;;;;;;5049334;28;20552;-58
2022/05/22 06:47:37;;;;;;;12.35;5.60;;;17.40;99.90;;;;;;5050532;28;20032;-58
2022/05/22 06:50:06;;;;;;;13.20;5.25;;;18.90;99.90;;;;;;5050857;28;20047;-58
2022/05/22 06:52:33;;;;;;;12.50;5.15;;;20.40;99.90;;;;;;5050490;28;20032;-58
2022/05/22 06:55:00;;;;;;;11.60;4.60;;;21.90;99.90;;;;;;5050608;28;20021;-59
2022/05/22 06:57:26;;;;;;;13.77;4.65;;;23.10;99.40;;;;;;5049265;28;20420;-59
2022/05/22 06:59:55;;;;;;;11.77;4.85;;;22.90;97.70;;;;;;5050801;28;20104;-59
2022/05/22 07:02:21;;;;;;;10.73;4.38;;;22.50;98.00;;;;;;5050681;28;20025;-59
2022/05/22 07:04:47;;;;;;;9.63;4.80;;;23.10;97.70;;;;;;5050540;28;20056;-59
2022/05/22 07:07:12;;;;;;;9.45;4.38;;;23.20;95.90;;;;;;5052756;28;20067;-59
2022/05/22 07:09:38;;;;;;;10.77;4.25;;;23.40;96.20;;;;;;5052928;28;20028;-59
2022/05/22 07:12:10;;;;;;;9.73;4.53;;;23.80;95.60;;;;;;5054038;28;20068;-58
2022/05/22 07:14:36;;;;;;;8.93;3.90;;;25.20;92.80;;;;;;5054128;28;20584;-58
2022/05/22 07:17:03;;;;;;;11.00;3.75;;;24.40;92.30;;;;;;5053794;28;20394;-58
2022/05/22 07:19:29;;;;;;;8.13;4.05;;;24.70;92.60;;;;;;5053833;28;20036;-59
2022/05/22 07:21:55;;;;;;;9.13;4.60;;;24.70;91.40;;;;;;5054072;28;20025;-58
2022/05/22 07:24:20;;;;;;;10.13;3.85;;;24.20;92.90;;;;;;5052134;28;20035;-58
2022/05/22 07:26:46;;;;;;;11.05;3.60;;;25.50;90.50;;;;;;5053613;28;20482;-56
2022/05/22 07:29:12;;;;;;;8.50;3.90;;;26.00;89.80;;;;;;5053440;28;20071;-56
2022/05/22 07:31:40;;;;;;;10.35;3.65;;;26.80;87.50;;;;;;5053428;28;20497;-56
2022/05/22 07:34:05;;;;;;;8.77;3.55;;;27.30;85.80;;;;;;5053688;28;20021;-56
2022/05/22 07:36:31;;;;;;;7.20;3.67;;;27.10;83.60;;;;;;5053449;28;20025;-57
2022/05/22 07:38:56;;;;;;;10.18;3.55;;;25.90;84.00;;;;;;5052074;28;20025;-57
2022/05/22 07:41:22;;;;;;;8.18;3.17;;;25.20;87.30;;;;;;5053529;28;20555;-57
2022/05/22 07:43:48;;;;;;;9.82;3.60;;;25.60;87.00;;;;;;5052996;28;20036;-56
2022/05/22 07:46:14;;;;;;;11.60;3.30;;;25.90;84.50;;;;;;5052072;28;20087;-56
2022/05/22 07:48:42;;;;;;;10.18;3.60;;;26.50;84.50;;;;;;5053057;28;20053;-56
2022/05/22 07:51:09;;;;;;;10.75;3.33;;;26.80;80.80;;;;;;5053282;28;20025;-56
2022/05/22 07:53:34;;;;;;;8.00;3.28;;;26.10;82.30;;;;;;5053332;28;20107;-56
2022/05/22 07:56:01;;;;;;;9.32;2.92;;;26.10;83.10;;;;;;5053028;28;20121;-56
2022/05/22 07:58:29;;;;;;;10.52;3.47;;;26.10;83.20;;;;;;5051734;28;20489;-56
2022/05/22 08:00:56;;;;;;;10.35;3.70;;;26.10;83.70;;;;;;5053187;28;20029;-56
2022/05/22 08:03:22;;;;;;;9.50;3.40;;;25.80;81.80;;;;;;5052933;28;20021;-56
2022/05/22 08:05:48;;;;;;;10.73;3.85;;;26.80;81.30;;;;;;5052875;28;20534;-56
2022/05/22 08:08:16;;;;;;;10.27;3.60;;;26.90;80.10;;;;;;5052779;28;20036;-56
2022/05/22 08:10:42;;;;;;;9.77;3.33;;;26.10;80.10;;;;;;5052922;28;20028;-56
2022/05/22 08:13:08;;;;;;;9.73;3.40;;;27.10;80.00;;;;;;5052847;28;20021;-56
2022/05/22 08:15:36;;;;;;;8.10;3.33;;;26.90;78.50;;;;;;5052938;28;20025;-56
2022/05/22 08:18:02;;;;;;;13.07;3.80;;;25.80;81.60;;;;;;5052148;28;20025;-56
2022/05/22 08:20:30;;;;;;;10.73;3.92;;;24.80;85.00;;;;;;5051444;28;20496;-56
2022/05/22 08:22:58;;;;;;;11.00;3.80;;;24.80;84.10;;;;;;5051287;28;20111;-56
2022/05/22 08:25:25;;;;;;;10.05;3.75;;;24.70;85.00;;;;;;5052603;28;20108;-56
2022/05/22 08:27:52;;;;;;;10.82;4.25;;;25.60;83.00;;;;;;5052396;28;20079;-56
2022/05/22 08:30:19;;;;;;;11.68;4.15;;;26.20;81.20;;;;;;5052430;28;20053;-56
2022/05/22 08:32:47;;;;;;;8.95;3.65;;;26.90;79.70;;;;;;5052141;28;20136;-56
2022/05/22 08:35:15;;;;;;;7.82;3.53;;;27.10;78.10;;;;;;5052295;28;20085;-56
2022/05/22 08:37:42;;;;;;;12.50;4.07;;;27.20;79.10;;;;;;5052350;28;20481;-56
2022/05/22 08:40:10;;;;;;;9.20;3.30;;;27.70;77.80;;;;;;5052258;28;20017;-56
2022/05/22 08:42:42;;;;;;;8.48;3.53;;;28.20;78.00;;;;;;5052118;28;20119;-56
2022/05/22 08:45:11;;;;;;;;;;;28.10;76.90;;;;;;5052671;28;20389;-56
2022/05/22 08:47:38;;;;;;;10.50;3.28;;;27.70;73.10;;;;;;5052156;28;20357;-57
2022/05/22 08:50:08;;;;;;;8.20;3.10;;;28.00;75.40;;;;;;5052196;28;20040;-57
2022/05/22 08:52:58;;;;;;;8.32;3.17;;;27.60;74.10;;;;;;5051989;28;20082;-57
2022/05/22 09:01:12;;;;;;;10.25;3.00;;;27.10;74.80;;;;;;5052287;28;20039;-57
2022/05/22 09:03:48;;;;;;;6.80;3.05;;;28.10;72.50;;;;;;5051777;28;20486;-57
2022/05/22 09:06:19;;;;;;;9.00;3.30;;;29.10;72.40;;;;;;5052107;28;20036;-57
2022/05/22 09:08:49;;;;;;;7.30;2.80;;;27.70;72.50;;;;;;5050443;28;20500;-57
2022/05/22 09:11:27;;;;;;;8.48;3.30;;;26.40;74.30;;;;;;5051751;28;20025;-57
2022/05/22 09:13:54;;;;;;;7.72;2.65;;;25.70;74.90;;;;;;5050230;28;20473;-57
2022/05/22 09:16:29;;;;;;;7.22;2.40;;;25.90;76.10;;;;;;5051466;28;20024;-57
2022/05/22 09:19:03;;;;;;;11.02;2.63;;;26.50;74.50;;;;;;5050410;28;20148;-57
2022/05/22 09:21:51;;;;;;;6.20;2.38;;;27.30;72.20;;;;;;5050375;28;20032;-57
2022/05/22 09:24:26;;;;;;;5.40;2.40;;;27.60;71.70;;;;;;5051509;28;20473;-57
2022/05/22 09:27:00;;;;;;;7.88;2.58;;;26.40;74.20;;;;;;5051450;28;20037;-57
2022/05/22 09:29:41;;;;;;;6.65;2.50;;;26.20;76.20;;;;;;5050757;28;20033;-57
2022/05/22 09:32:31;;;;;;;9.30;2.60;;;27.10;73.20;;;;;;5050343;28;20116;-57
2022/05/22 09:35:36;;;;;;;5.68;2.10;;;28.00;72.30;;;;;;5051175;28;20040;-57
2022/05/22 09:38:42;;;;;;;7.88;2.30;;;27.00;72.30;;;;;;5029437;28;20100;-57
2022/05/22 09:41:55;;;;;;;6.82;2.20;;;25.30;76.20;;;;;;5016598;28;20041;-57
2022/05/22 09:44:55;;;;;;;7.35;2.08;;;25.80;76.80;;;;;;5050018;28;20025;-58
2022/05/22 09:47:39;;;;;;;5.13;2.42;;;26.40;76.20;;;;;;5048779;28;20040;-58
2022/05/22 09:50:46;;;;;;;10.23;2.85;;;26.40;75.90;;;;;;5051613;28;20024;-58
2022/05/22 09:53:54;;;;;;;4.68;1.90;;;28.00;73.70;;;;;;5033640;28;20129;-57
2022/05/22 09:56:38;;;;;;;7.45;2.38;;;28.60;70.70;;;;;;5050950;28;20586;-57
2022/05/22 09:59:16;;;;;;;5.80;2.70;;;28.30;73.20;;;;;;5049798;28;20120;-57
2022/05/22 10:01:46;;;;;;;5.50;2.30;;;27.80;73.10;;;;;;5050082;28;20025;-57
2022/05/22 10:04:55;;;;;;;6.80;2.90;;;26.00;77.20;;;;;;5051188;28;20021;-57
2022/05/22 10:07:45;;;;;;;5.93;2.70;;;25.30;78.70;;;;;;5038784;28;20049;-57
2022/05/22 10:10:40;;;;;;;6.80;3.35;;;25.30;80.10;;;;;;5050963;28;20025;-58
2022/05/22 10:13:42;;;;;;;6.75;3.20;;;25.40;80.30;;;;;;5050999;28;20031;-58
2022/05/22 10:16:29;;;;;;;8.82;3.40;;;25.40;77.60;;;;;;5050927;28;20543;-58
2022/05/22 10:19:25;;;;;;;9.25;3.22;;;25.80;78.30;;;;;;5050961;28;20381;-58
2022/05/22 10:22:33;;;;;;;6.72;3.10;;;26.40;78.30;;;;;;5051197;28;20060;-58
2022/05/22 10:25:19;;;;;;;10.45;3.05;;;27.20;75.60;;;;;;5047541;28;20041;-58
2022/05/22 10:28:12;;;;;;;8.27;2.90;;;28.20;73.70;;;;;;5049610;28;20021;-58
2022/05/22 10:30:52;;;;;;;7.40;2.85;;;27.70;71.80;;;;;;5050695;28;20052;-58
2022/05/22 10:33:31;;;;;;;6.68;2.42;;;28.20;72.10;;;;;;5050557;28;20033;-58
2022/05/22 10:36:13;;;;;;;8.32;2.70;;;29.30;69.60;;;;;;5050575;28;20408;-58
2022/05/22 10:38:51;;;;;;;8.55;3.03;;;30.00;69.10;;;;;;5050749;28;20037;-58
2022/05/22 10:44:10;;;;;;;7.78;2.40;;;28.90;69.70;;;;;;5054600;28;20524;-58
2022/05/22 10:47:02;;;;;;;6.43;2.63;;;29.00;70.40;;;;;;5054575;28;20033;-58
2022/05/22 10:49:44;;;;;;;;;;;28.90;69.60;;;;;;5055036;28;20108;-58
2022/05/22 10:52:13;;;;;;;6.50;3.03;;;29.70;68.90;;;;;;5054406;28;19962;-58
2022/05/22 10:54:47;;;;;;;6.55;2.78;;;31.10;65.30;;;;;;5054348;28;20401;-58
2022/05/22 10:57:20;;;;;;;6.38;2.65;;;30.60;66.10;;;;;;5054416;28;20040;-58
2022/05/22 10:59:46;;;;;;;8.98;3.20;;;29.30;68.70;;;;;;5053031;28;20083;-58
2022/05/22 11:02:26;;;;;;;7.15;2.88;;;27.70;73.70;;;;;;5054014;28;20385;-58
2022/05/22 11:04:54;;;;;;;9.60;2.80;;;27.90;72.50;;;;;;5054212;28;20021;-58
2022/05/22 11:07:30;;;;;;;8.90;2.92;;;27.40;74.60;;;;;;5054016;28;20029;-58
2022/05/22 11:10:15;;;;;;;7.78;3.35;;;27.10;74.60;;;;;;5053217;28;20032;-58
2022/05/22 11:12:40;;;;;;;10.75;2.88;;;27.80;74.40;;;;;;5053867;28;20100;-58
2022/05/22 11:15:31;;;;;;;7.53;2.78;;;29.30;69.00;;;;;;5052614;28;20167;-58
2022/05/22 11:18:24;;;;;;;6.95;2.55;;;28.00;68.20;;;;;;5053835;28;20469;-58
2022/05/22 11:21:08;;;;;;;6.18;2.45;;;28.00;68.90;;;;;;5054034;28;20027;-58
2022/05/22 11:23:56;;;;;;;6.90;2.60;;;27.70;69.90;;;;;;5052610;28;20082;-58
2022/05/22 11:26:57;;;;;;;5.38;2.30;;;27.70;70.10;;;;;;5052487;28;20170;-58
2022/05/22 11:29:36;;;;;;;5.25;2.50;;;27.50;70.50;;;;;;5053381;28;20531;-58
2022/05/22 11:32:39;;;;;;;6.32;2.65;;;28.00;70.10;;;;;;5053585;28;20508;-58
2022/05/22 11:35:28;;;;;;;7.53;2.33;;;27.70;71.60;;;;;;5046828;28;20029;-58
2022/05/22 11:38:12;;;;;;;6.50;2.40;;;28.30;68.50;;;;;;5051930;28;20079;-58
2022/05/22 11:41:02;;;;;;;6.60;2.17;;;28.90;67.60;;;;;;5052166;28;20090;-58
2022/05/22 11:43:33;;;;;;;5.97;2.40;;;28.50;68.20;;;;;;5053338;28;20524;-58
2022/05/22 11:46:04;;;;;;;5.17;2.50;;;28.30;68.30;;;;;;5053139;28;20021;-58
2022/05/22 11:48:40;;;;;;;5.70;2.40;;;27.50;72.50;;;;;;5053261;28;20477;-58
2022/05/22 11:51:31;;;;;;;8.68;3.00;;;28.70;69.70;;;;;;5051904;28;20029;-58
2022/05/22 11:54:19;;;;;;;5.72;2.65;;;30.00;68.90;;;;;;5051438;28;20025;-58
2022/05/22 11:57:00;;;;;;;5.18;2.78;;;30.00;67.70;;;;;;5051839;28;20410;-58
2022/05/22 11:59:58;;;;;;;4.75;2.60;;;30.40;65.70;;;;;;5053239;28;20067;-59
2022/05/22 12:02:33;;;;;;;5.60;2.85;;;30.70;67.70;;;;;;5053671;28;20418;-58
2022/05/22 12:05:29;;;;;;;6.47;2.65;;;30.10;67.90;;;;;;5053061;28;20029;-58
2022/05/22 12:08:23;;;;;;;4.78;2.10;;;30.80;67.50;;;;;;5053206;28;20535;-58
2022/05/22 12:11:32;;;;;;;6.35;2.50;;;31.40;67.80;;;;;;5051741;28;20021;-58
2022/05/22 12:14:35;;;;;;;5.63;2.38;;;32.30;64.70;;;;;;5052985;28;20465;-58
2022/05/22 12:17:04;;;;;;;6.95;2.10;;;31.20;61.30;;;;;;5040380;28;20055;-58
2022/05/22 12:20:19;;;;;;;4.95;1.90;;;29.80;64.40;;;;;;5052965;28;20025;-58
2022/05/22 12:23:18;;;;;;;4.68;2.28;;;29.90;65.90;;;;;;5047910;28;20513;-58
2022/05/22 12:26:00;;;;;;;6.15;2.13;;;29.60;67.50;;;;;;5044019;28;20044;-58
2022/05/22 12:28:50;;;;;;;6.95;2.80;;;29.70;65.20;;;;;;5051459;28;20029;-58
2022/05/22 12:31:25;;;;;;;6.07;2.53;;;29.30;68.30;;;;;;5052422;28;20517;-58
2022/05/22 12:33:52;;;;;;;6.72;2.78;;;30.40;64.50;;;;;;5052356;28;20025;-58
2022/05/22 12:36:24;;;;;;;6.45;2.50;;;30.60;62.90;;;;;;5052377;28;20108;-58
2022/05/22 12:39:04;;;;;;;5.22;2.47;;;31.60;62.70;;;;;;5052420;28;20029;-58
2022/05/22 12:41:42;;;;;;;5.88;3.00;;;32.10;62.20;;;;;;5051162;28;20098;-58
2022/05/22 12:44:08;;;;;;;5.25;2.10;;;30.60;63.50;;;;;;5052219;28;20033;-58
2022/05/22 12:46:36;;;;;;;6.25;2.92;;;29.80;66.60;;;;;;5051364;28;20037;-58
2022/05/22 12:49:17;;;;;;;8.90;2.70;;;28.40;66.70;;;;;;5049664;28;20512;-58
2022/05/22 12:51:45;;;;;;;9.43;2.83;;;29.10;67.20;;;;;;5051160;28;20025;-58
2022/05/22 12:54:23;;;;;;;5.35;2.80;;;29.60;67.00;;;;;;5049995;28;20025;-58
2022/05/22 12:56:49;;;;;;;7.35;3.00;;;28.70;67.20;;;;;;5051574;28;20096;-58
2022/05/22 12:59:25;;;;;;;6.53;2.78;;;28.40;67.20;;;;;;5049706;28;20115;-58
2022/05/22 13:01:58;;;;;;;7.25;2.03;;;29.30;66.50;;;;;;5051516;28;20108;-58
2022/05/22 13:04:59;;;;;;;5.63;2.40;;;30.20;66.20;;;;;;5050691;28;20080;-58
2022/05/22 13:07:36;;;;;;;6.82;2.55;;;31.50;64.30;;;;;;5050578;28;20504;-58
2022/05/22 13:10:20;;;;;;;5.15;2.63;;;32.20;59.90;;;;;;5051813;28;20075;-58
2022/05/22 13:12:53;;;;;;;6.43;2.85;;;31.00;62.50;;;;;;5050484;28;20488;-58
2022/05/22 13:15:24;;;;;;;7.13;2.63;;;30.80;62.30;;;;;;5051713;28;20107;-58
2022/05/22 13:18:03;;;;;;;5.50;2.50;;;30.50;64.80;;;;;;5051510;28;20056;-58
2022/05/22 13:20:35;;;;;;;6.70;2.38;;;29.90;64.80;;;;;;5050684;28;20013;-58
2022/05/22 13:23:08;;;;;;;4.82;2.15;;;29.40;65.80;;;;;;5051566;28;20025;-58
2022/05/22 13:25:43;;;;;;;5.95;2.80;;;30.30;64.80;;;;;;5051485;28;20477;-58